sensor_id;sensor_type;location;lat;lon;timestamp;pressure;altitude;pressure_sealevel;temperature;humidity
53522;BME280;39398;48.382;9.802;2024-02-21T00:00:20;94755.28;;;3.94;71.02
53522;BME280;39398;48.382;9.802;2024-02-21T00:05:22;94756.94;;;3.85;71.12
53522;BME280;39398;48.382;9.802;2024-02-21T00:10:25;94766.66;;;3.91;71.29
53522;BME280;39398;48.382;9.802;2024-02-21T00:15:27;94756.63;;;3.88;72.46
53522;BME280;39398;48.382;9.802;2024-02-21T00:20:28;94748.38;;;3.94;72.68
53522;BME280;39398;48.382;9.802;2024-02-21T00:25:31;94743.63;;;3.90;72.97
53522;BME280;39398;48.382;9.802;2024-02-21T00:30:33;94737.31;;;3.84;71.75
53522;BME280;39398;48.382;9.802;2024-02-21T00:35:34;94742.31;;;3.76;72.02
53522;BME280;39398;48.382;9.802;2024-02-21T00:40:37;94740.31;;;3.70;72.15
53522;BME280;39398;48.382;9.802;2024-02-21T00:45:39;94745.06;;;3.65;72.36
53522;BME280;39398;48.382;9.802;2024-02-21T00:50:41;94741.81;;;3.63;72.42
53522;BME280;39398;48.382;9.802;2024-02-21T00:55:43;94738.69;;;3.69;72.88
53522;BME280;39398;48.382;9.802;2024-02-21T01:00:45;94721.22;;;3.72;72.55
53522;BME280;39398;48.382;9.802;2024-02-21T01:05:47;94715.84;;;3.66;72.58
53522;BME280;39398;48.382;9.802;2024-02-21T01:10:50;94718.28;;;3.67;73.53
53522;BME280;39398;48.382;9.802;2024-02-21T01:15:51;94709.06;;;3.65;72.86
53522;BME280;39398;48.382;9.802;2024-02-21T01:20:53;94697.97;;;3.64;72.86
53522;BME280;39398;48.382;9.802;2024-02-21T01:25:56;94695.00;;;3.59;72.63
53522;BME280;39398;48.382;9.802;2024-02-21T01:30:58;94689.72;;;3.61;72.62
53522;BME280;39398;48.382;9.802;2024-02-21T01:35:59;94680.38;;;3.60;72.67
53522;BME280;39398;48.382;9.802;2024-02-21T01:41:02;94674.44;;;3.59;72.44
53522;BME280;39398;48.382;9.802;2024-02-21T01:46:04;94679.72;;;3.58;72.53
53522;BME280;39398;48.382;9.802;2024-02-21T01:51:06;94665.81;;;3.50;72.71
53522;BME280;39398;48.382;9.802;2024-02-21T01:56:09;94659.28;;;3.56;72.76
53522;BME280;39398;48.382;9.802;2024-02-21T02:01:11;94651.56;;;3.66;73.51
53522;BME280;39398;48.382;9.802;2024-02-21T02:06:13;94636.28;;;3.55;72.44
53522;BME280;39398;48.382;9.802;2024-02-21T02:11:17;94624.38;;;3.54;72.70
53522;BME280;39398;48.382;9.802;2024-02-21T02:16:18;94631.44;;;3.52;72.73
53522;BME280;39398;48.382;9.802;2024-02-21T02:21:27;94625.78;;;3.48;74.38
53522;BME280;39398;48.382;9.802;2024-02-21T02:26:31;94614.94;;;3.44;73.04
53522;BME280;39398;48.382;9.802;2024-02-21T02:31:33;94600.88;;;3.48;73.48
53522;BME280;39398;48.382;9.802;2024-02-21T02:36:35;94605.75;;;3.42;73.09
53522;BME280;39398;48.382;9.802;2024-02-21T02:41:38;94606.28;;;3.45;73.49
53522;BME280;39398;48.382;9.802;2024-02-21T02:46:40;94596.00;;;3.45;73.31
53522;BME280;39398;48.382;9.802;2024-02-21T02:51:42;94593.44;;;3.45;73.44
53522;BME280;39398;48.382;9.802;2024-02-21T02:56:45;94588.69;;;3.50;73.16
53522;BME280;39398;48.382;9.802;2024-02-21T03:01:46;94588.28;;;3.45;73.35
53522;BME280;39398;48.382;9.802;2024-02-21T03:06:48;94573.25;;;3.50;73.53
53522;BME280;39398;48.382;9.802;2024-02-21T03:11:51;94562.97;;;3.50;73.45
53522;BME280;39398;48.382;9.802;2024-02-21T03:16:52;94569.75;;;3.52;73.10
53522;BME280;39398;48.382;9.802;2024-02-21T03:21:54;94571.34;;;3.53;73.28
53522;BME280;39398;48.382;9.802;2024-02-21T03:26:57;94567.31;;;3.50;72.88
53522;BME280;39398;48.382;9.802;2024-02-21T03:31:58;94562.03;;;3.52;73.42
53522;BME280;39398;48.382;9.802;2024-02-21T03:37:00;94559.81;;;3.57;73.36
53522;BME280;39398;48.382;9.802;2024-02-21T03:42:04;94551.97;;;3.58;72.94
53522;BME280;39398;48.382;9.802;2024-02-21T03:47:05;94531.81;;;3.54;73.67
53522;BME280;39398;48.382;9.802;2024-02-21T03:52:07;94539.69;;;3.52;73.82
53522;BME280;39398;48.382;9.802;2024-02-21T03:57:10;94528.03;;;3.58;73.79
53522;BME280;39398;48.382;9.802;2024-02-21T04:02:12;94517.00;;;3.47;73.82
53522;BME280;39398;48.382;9.802;2024-02-21T04:07:13;94514.03;;;3.42;73.79
53522;BME280;39398;48.382;9.802;2024-02-21T04:12:16;94509.56;;;3.44;74.01
53522;BME280;39398;48.382;9.802;2024-02-21T04:17:18;94507.81;;;3.45;74.53
53522;BME280;39398;48.382;9.802;2024-02-21T04:22:20;94495.38;;;3.40;75.03
53522;BME280;39398;48.382;9.802;2024-02-21T04:27:23;94483.00;;;3.26;75.14
53522;BME280;39398;48.382;9.802;2024-02-21T04:32:24;94470.72;;;3.20;75.59
53522;BME280;39398;48.382;9.802;2024-02-21T04:37:26;94470.06;;;3.18;75.55
53522;BME280;39398;48.382;9.802;2024-02-21T04:42:29;94471.09;;;3.25;75.96
53522;BME280;39398;48.382;9.802;2024-02-21T04:47:31;94469.75;;;3.21;76.41
53522;BME280;39398;48.382;9.802;2024-02-21T04:52:32;94462.78;;;3.13;76.04
53522;BME280;39398;48.382;9.802;2024-02-21T04:57:35;94460.91;;;3.06;76.18
53522;BME280;39398;48.382;9.802;2024-02-21T05:02:37;94454.88;;;2.97;77.65
53522;BME280;39398;48.382;9.802;2024-02-21T05:07:38;94438.94;;;2.94;76.94
53522;BME280;39398;48.382;9.802;2024-02-21T05:12:41;94429.63;;;2.93;77.61
53522;BME280;39398;48.382;9.802;2024-02-21T05:17:43;94421.66;;;2.86;77.93
53522;BME280;39398;48.382;9.802;2024-02-21T05:22:45;94418.16;;;2.87;78.75
53522;BME280;39398;48.382;9.802;2024-02-21T05:27:50;94422.91;;;2.82;78.80
53522;BME280;39398;48.382;9.802;2024-02-21T05:32:52;94417.25;;;2.78;78.93
53522;BME280;39398;48.382;9.802;2024-02-21T05:37:54;94417.94;;;2.71;79.40
53522;BME280;39398;48.382;9.802;2024-02-21T05:42:57;94418.34;;;2.76;80.50
53522;BME280;39398;48.382;9.802;2024-02-21T05:47:58;94406.19;;;2.68;81.24
53522;BME280;39398;48.382;9.802;2024-02-21T05:53:00;94411.63;;;2.65;80.35
53522;BME280;39398;48.382;9.802;2024-02-21T05:58:03;94414.88;;;2.67;80.02
53522;BME280;39398;48.382;9.802;2024-02-21T06:03:05;94420.28;;;2.64;80.37
53522;BME280;39398;48.382;9.802;2024-02-21T06:08:06;94425.19;;;2.48;80.81
53522;BME280;39398;48.382;9.802;2024-02-21T06:13:09;94406.28;;;2.49;81.40
53522;BME280;39398;48.382;9.802;2024-02-21T06:18:11;94397.34;;;2.53;80.78
53522;BME280;39398;48.382;9.802;2024-02-21T06:23:15;94389.00;;;2.51;80.61
53522;BME280;39398;48.382;9.802;2024-02-21T06:28:18;94385.19;;;2.55;80.45
53522;BME280;39398;48.382;9.802;2024-02-21T06:33:20;94393.13;;;2.62;80.18
53522;BME280;39398;48.382;9.802;2024-02-21T06:38:21;94405.56;;;2.66;80.04
53522;BME280;39398;48.382;9.802;2024-02-21T06:43:25;94405.78;;;2.73;80.49
53522;BME280;39398;48.382;9.802;2024-02-21T06:48:26;94405.09;;;2.80;79.92
53522;BME280;39398;48.382;9.802;2024-02-21T06:53:28;94406.41;;;2.85;79.53
53522;BME280;39398;48.382;9.802;2024-02-21T06:58:31;94401.75;;;2.98;79.38
53522;BME280;39398;48.382;9.802;2024-02-21T07:03:33;94391.41;;;3.07;79.08
53522;BME280;39398;48.382;9.802;2024-02-21T07:08:34;94392.13;;;3.27;77.61
53522;BME280;39398;48.382;9.802;2024-02-21T07:13:37;94399.59;;;3.38;77.43
53522;BME280;39398;48.382;9.802;2024-02-21T07:18:39;94395.81;;;3.78;76.31
53522;BME280;39398;48.382;9.802;2024-02-21T07:23:41;94394.09;;;3.86;75.39
53522;BME280;39398;48.382;9.802;2024-02-21T07:28:44;94389.28;;;4.09;76.10
53522;BME280;39398;48.382;9.802;2024-02-21T07:33:45;94391.94;;;4.17;75.33
53522;BME280;39398;48.382;9.802;2024-02-21T07:38:47;94389.19;;;4.19;75.27
53522;BME280;39398;48.382;9.802;2024-02-21T07:43:50;94382.38;;;4.36;74.50
53522;BME280;39398;48.382;9.802;2024-02-21T07:48:52;94375.75;;;4.59;73.52
53522;BME280;39398;48.382;9.802;2024-02-21T07:53:53;94369.78;;;4.59;73.39
53522;BME280;39398;48.382;9.802;2024-02-21T07:58:56;94356.59;;;4.96;73.11
53522;BME280;39398;48.382;9.802;2024-02-21T08:03:58;94356.44;;;4.97;72.94
53522;BME280;39398;48.382;9.802;2024-02-21T08:09:00;94355.03;;;5.11;72.08
53522;BME280;39398;48.382;9.802;2024-02-21T08:14:03;94350.53;;;5.21;72.07
53522;BME280;39398;48.382;9.802;2024-02-21T08:19:04;94335.44;;;5.34;71.36
53522;BME280;39398;48.382;9.802;2024-02-21T08:24:06;94324.50;;;5.48;71.32
53522;BME280;39398;48.382;9.802;2024-02-21T08:29:09;94319.63;;;5.53;70.55
53522;BME280;39398;48.382;9.802;2024-02-21T08:34:10;94322.72;;;5.65;70.26
53522;BME280;39398;48.382;9.802;2024-02-21T08:39:12;94323.53;;;5.66;69.65
53522;BME280;39398;48.382;9.802;2024-02-21T08:44:15;94320.63;;;5.77;69.46
53522;BME280;39398;48.382;9.802;2024-02-21T08:49:16;94321.28;;;5.95;69.28
53522;BME280;39398;48.382;9.802;2024-02-21T08:54:18;94309.31;;;6.18;68.70
53522;BME280;39398;48.382;9.802;2024-02-21T08:59:21;94304.94;;;6.27;68.72
53522;BME280;39398;48.382;9.802;2024-02-21T09:04:22;94294.72;;;6.42;68.45
53522;BME280;39398;48.382;9.802;2024-02-21T09:09:24;94294.59;;;6.35;67.74
53522;BME280;39398;48.382;9.802;2024-02-21T09:14:31;94296.34;;;6.43;68.40
53522;BME280;39398;48.382;9.802;2024-02-21T09:19:34;94287.06;;;6.56;68.41
53522;BME280;39398;48.382;9.802;2024-02-21T09:24:36;94277.44;;;6.50;67.42
53522;BME280;39398;48.382;9.802;2024-02-21T09:29:39;94280.13;;;6.65;68.42
53522;BME280;39398;48.382;9.802;2024-02-21T09:34:41;94270.84;;;6.79;68.16
53522;BME280;39398;48.382;9.802;2024-02-21T09:39:43;94265.53;;;6.72;67.46
53522;BME280;39398;48.382;9.802;2024-02-21T09:44:46;94259.31;;;6.58;67.27
53522;BME280;39398;48.382;9.802;2024-02-21T09:49:48;94258.38;;;6.51;67.89
53522;BME280;39398;48.382;9.802;2024-02-21T09:54:49;94252.41;;;6.51;67.18
53522;BME280;39398;48.382;9.802;2024-02-21T09:59:52;94249.78;;;6.59;67.13
53522;BME280;39398;48.382;9.802;2024-02-21T10:04:54;94240.03;;;7.00;66.64
53522;BME280;39398;48.382;9.802;2024-02-21T10:10:00;94236.31;;;7.03;65.66
53522;BME280;39398;48.382;9.802;2024-02-21T10:15:04;94232.50;;;7.13;66.39
53522;BME280;39398;48.382;9.802;2024-02-21T10:20:07;94221.53;;;7.34;64.21
53522;BME280;39398;48.382;9.802;2024-02-21T10:25:09;94220.44;;;7.51;63.23
53522;BME280;39398;48.382;9.802;2024-02-21T10:30:14;94206.84;;;7.49;62.76
53522;BME280;39398;48.382;9.802;2024-02-21T10:35:25;94204.41;;;7.70;63.42
53522;BME280;39398;48.382;9.802;2024-02-21T10:40:28;94194.78;;;7.94;62.48
53522;BME280;39398;48.382;9.802;2024-02-21T10:45:34;94190.06;;;7.97;62.01
53522;BME280;39398;48.382;9.802;2024-02-21T10:50:44;94184.41;;;7.94;61.33
53522;BME280;39398;48.382;9.802;2024-02-21T10:55:56;94186.63;;;8.26;60.14
53522;BME280;39398;48.382;9.802;2024-02-21T11:01:02;94173.47;;;8.36;60.00
53522;BME280;39398;48.382;9.802;2024-02-21T11:06:04;94166.53;;;8.28;60.79
53522;BME280;39398;48.382;9.802;2024-02-21T11:11:06;94158.72;;;8.36;58.87
53522;BME280;39398;48.382;9.802;2024-02-21T11:16:21;94151.31;;;8.55;58.92
53522;BME280;39398;48.382;9.802;2024-02-21T11:21:33;94142.06;;;8.46;57.77
53522;BME280;39398;48.382;9.802;2024-02-21T11:26:37;94138.63;;;8.60;57.81
53522;BME280;39398;48.382;9.802;2024-02-21T11:31:41;94128.63;;;8.57;58.29
53522;BME280;39398;48.382;9.802;2024-02-21T11:36:49;94113.31;;;8.40;57.34
53522;BME280;39398;48.382;9.802;2024-02-21T11:42:04;94104.94;;;8.60;57.76
53522;BME280;39398;48.382;9.802;2024-02-21T11:47:07;94088.78;;;8.58;57.96
53522;BME280;39398;48.382;9.802;2024-02-21T11:52:09;94072.13;;;8.46;57.52
53522;BME280;39398;48.382;9.802;2024-02-21T11:57:11;94073.81;;;8.38;57.16
53522;BME280;39398;48.382;9.802;2024-02-21T12:02:14;94064.03;;;8.55;58.14
53522;BME280;39398;48.382;9.802;2024-02-21T12:07:16;94055.94;;;8.44;56.98
53522;BME280;39398;48.382;9.802;2024-02-21T12:12:20;94042.81;;;8.45;56.86
53522;BME280;39398;48.382;9.802;2024-02-21T12:17:23;94040.28;;;8.52;56.98
53522;BME280;39398;48.382;9.802;2024-02-21T12:22:25;94029.50;;;8.69;56.70
53522;BME280;39398;48.382;9.802;2024-02-21T12:27:30;94022.38;;;8.78;57.08
53522;BME280;39398;48.382;9.802;2024-02-21T12:32:33;94002.28;;;9.15;56.91
53522;BME280;39398;48.382;9.802;2024-02-21T12:37:35;93992.28;;;9.12;56.81
53522;BME280;39398;48.382;9.802;2024-02-21T12:42:40;93986.72;;;9.15;55.02
53522;BME280;39398;48.382;9.802;2024-02-21T12:47:43;93988.56;;;9.21;54.28
53522;BME280;39398;48.382;9.802;2024-02-21T12:52:45;93973.44;;;9.31;54.73
53522;BME280;39398;48.382;9.802;2024-02-21T12:57:46;93964.50;;;9.33;53.99
53522;BME280;39398;48.382;9.802;2024-02-21T13:02:49;93964.09;;;9.36;53.13
53522;BME280;39398;48.382;9.802;2024-02-21T13:07:51;93945.28;;;9.28;54.02
53522;BME280;39398;48.382;9.802;2024-02-21T13:12:52;93932.97;;;9.43;52.89
53522;BME280;39398;48.382;9.802;2024-02-21T13:17:56;93937.03;;;9.52;53.28
53522;BME280;39398;48.382;9.802;2024-02-21T13:22:57;93921.78;;;9.36;52.21
53522;BME280;39398;48.382;9.802;2024-02-21T13:27:59;93913.59;;;9.39;52.98
53522;BME280;39398;48.382;9.802;2024-02-21T13:33:02;93897.50;;;9.50;51.31
53522;BME280;39398;48.382;9.802;2024-02-21T13:38:04;93895.09;;;9.49;50.78
53522;BME280;39398;48.382;9.802;2024-02-21T13:43:05;93889.28;;;9.47;50.19
53522;BME280;39398;48.382;9.802;2024-02-21T13:48:12;93877.09;;;9.40;50.23
53522;BME280;39398;48.382;9.802;2024-02-21T13:53:14;93873.69;;;9.40;51.77
53522;BME280;39398;48.382;9.802;2024-02-21T13:58:16;93857.13;;;9.41;50.43
53522;BME280;39398;48.382;9.802;2024-02-21T14:03:19;93857.53;;;9.38;49.60
53522;BME280;39398;48.382;9.802;2024-02-21T14:08:21;93839.72;;;9.28;51.25
53522;BME280;39398;48.382;9.802;2024-02-21T14:13:22;93837.94;;;9.29;50.91
53522;BME280;39398;48.382;9.802;2024-02-21T14:18:26;93826.56;;;9.30;52.04
53522;BME280;39398;48.382;9.802;2024-02-21T14:23:27;93824.34;;;9.20;51.36
53522;BME280;39398;48.382;9.802;2024-02-21T14:28:29;93814.97;;;9.26;51.92
53522;BME280;39398;48.382;9.802;2024-02-21T14:33:32;93811.56;;;9.25;53.19
53522;BME280;39398;48.382;9.802;2024-02-21T14:38:34;93801.00;;;9.20;52.76
53522;BME280;39398;48.382;9.802;2024-02-21T14:43:35;93790.59;;;9.14;52.65
53522;BME280;39398;48.382;9.802;2024-02-21T14:48:38;93785.03;;;9.17;53.38
53522;BME280;39398;48.382;9.802;2024-02-21T14:53:40;93784.81;;;9.12;53.81
53522;BME280;39398;48.382;9.802;2024-02-21T14:58:42;93785.81;;;9.10;54.10
53522;BME280;39398;48.382;9.802;2024-02-21T15:03:44;93779.63;;;9.12;53.75
53522;BME280;39398;48.382;9.802;2024-02-21T15:08:46;93785.63;;;9.25;54.97
53522;BME280;39398;48.382;9.802;2024-02-21T15:13:48;93776.66;;;9.21;54.33
53522;BME280;39398;48.382;9.802;2024-02-21T15:18:51;93761.09;;;9.21;54.72
53522;BME280;39398;48.382;9.802;2024-02-21T15:23:54;93744.75;;;9.21;54.01
53522;BME280;39398;48.382;9.802;2024-02-21T15:28:55;93752.09;;;9.10;54.56
53522;BME280;39398;48.382;9.802;2024-02-21T15:33:58;93748.31;;;9.20;55.50
53522;BME280;39398;48.382;9.802;2024-02-21T15:39:00;93731.72;;;9.07;55.47
53522;BME280;39398;48.382;9.802;2024-02-21T15:44:02;93732.53;;;9.01;55.86
53522;BME280;39398;48.382;9.802;2024-02-21T15:49:05;93735.47;;;8.92;55.75
53522;BME280;39398;48.382;9.802;2024-02-21T15:54:06;93734.47;;;8.86;55.97
53522;BME280;39398;48.382;9.802;2024-02-21T15:59:08;93732.47;;;8.82;55.80
53522;BME280;39398;48.382;9.802;2024-02-21T16:04:11;93717.66;;;8.69;56.10
53522;BME280;39398;48.382;9.802;2024-02-21T16:09:13;93712.81;;;8.53;56.54
53522;BME280;39398;48.382;9.802;2024-02-21T16:14:14;93694.22;;;8.43;57.27
53522;BME280;39398;48.382;9.802;2024-02-21T16:19:17;93697.81;;;8.35;57.32
53522;BME280;39398;48.382;9.802;2024-02-21T16:24:19;93684.78;;;8.28;56.81
53522;BME280;39398;48.382;9.802;2024-02-21T16:29:22;93682.38;;;8.20;56.58
53522;BME280;39398;48.382;9.802;2024-02-21T16:34:24;93676.91;;;8.09;57.20
53522;BME280;39398;48.382;9.802;2024-02-21T16:39:26;93673.31;;;8.03;57.58
53522;BME280;39398;48.382;9.802;2024-02-21T16:44:28;93671.91;;;8.00;57.33
53522;BME280;39398;48.382;9.802;2024-02-21T16:49:31;93655.09;;;7.90;58.06
53522;BME280;39398;48.382;9.802;2024-02-21T16:54:37;93658.84;;;7.81;58.50
53522;BME280;39398;48.382;9.802;2024-02-21T16:59:39;93658.09;;;7.87;58.26
53522;BME280;39398;48.382;9.802;2024-02-21T17:04:42;93646.72;;;7.81;58.73
53522;BME280;39398;48.382;9.802;2024-02-21T17:09:44;93649.09;;;7.83;59.17
53522;BME280;39398;48.382;9.802;2024-02-21T17:14:45;93641.47;;;7.75;59.35
53522;BME280;39398;48.382;9.802;2024-02-21T17:19:50;93654.59;;;7.66;60.21
53522;BME280;39398;48.382;9.802;2024-02-21T17:24:51;93656.31;;;7.59;60.30
53522;BME280;39398;48.382;9.802;2024-02-21T17:29:53;93632.16;;;7.46;61.05
53522;BME280;39398;48.382;9.802;2024-02-21T17:34:56;93638.75;;;7.48;61.13
53522;BME280;39398;48.382;9.802;2024-02-21T17:39:58;93626.97;;;7.46;61.20
53522;BME280;39398;48.382;9.802;2024-02-21T17:44:59;93614.91;;;7.53;60.90
53522;BME280;39398;48.382;9.802;2024-02-21T17:50:03;93611.13;;;7.55;61.03
53522;BME280;39398;48.382;9.802;2024-02-21T17:55:05;93612.09;;;7.54;60.52
53522;BME280;39398;48.382;9.802;2024-02-21T18:00:07;93607.94;;;7.53;61.39
53522;BME280;39398;48.382;9.802;2024-02-21T18:05:10;93597.34;;;7.48;61.00
53522;BME280;39398;48.382;9.802;2024-02-21T18:10:12;93591.81;;;7.51;60.99
53522;BME280;39398;48.382;9.802;2024-02-21T18:15:14;93591.00;;;7.51;60.66
53522;BME280;39398;48.382;9.802;2024-02-21T18:20:18;93584.44;;;7.48;61.08
53522;BME280;39398;48.382;9.802;2024-02-21T18:25:19;93577.66;;;7.47;61.38
53522;BME280;39398;48.382;9.802;2024-02-21T18:30:21;93567.06;;;7.42;61.45
53522;BME280;39398;48.382;9.802;2024-02-21T18:35:24;93559.31;;;7.42;61.65
53522;BME280;39398;48.382;9.802;2024-02-21T18:40:25;93552.16;;;7.44;61.78
53522;BME280;39398;48.382;9.802;2024-02-21T18:45:27;93556.91;;;7.41;62.13
53522;BME280;39398;48.382;9.802;2024-02-21T18:50:30;93552.91;;;7.38;62.13
53522;BME280;39398;48.382;9.802;2024-02-21T18:55:32;93555.50;;;7.38;62.44
53522;BME280;39398;48.382;9.802;2024-02-21T19:00:33;93551.34;;;7.37;63.00
53522;BME280;39398;48.382;9.802;2024-02-21T19:05:36;93554.91;;;7.36;62.72
53522;BME280;39398;48.382;9.802;2024-02-21T19:10:38;93554.50;;;7.39;62.58
53522;BME280;39398;48.382;9.802;2024-02-21T19:15:40;93553.13;;;7.37;62.74
53522;BME280;39398;48.382;9.802;2024-02-21T19:20:43;93549.75;;;7.36;62.70
53522;BME280;39398;48.382;9.802;2024-02-21T19:25:44;93543.97;;;7.34;62.46
53522;BME280;39398;48.382;9.802;2024-02-21T19:30:46;93542.97;;;7.35;62.54
53522;BME280;39398;48.382;9.802;2024-02-21T19:35:49;93535.22;;;7.35;62.60
53522;BME280;39398;48.382;9.802;2024-02-21T19:40:51;93534.59;;;7.33;62.35
53522;BME280;39398;48.382;9.802;2024-02-21T19:45:53;93531.03;;;7.34;62.63
53522;BME280;39398;48.382;9.802;2024-02-21T19:50:56;93527.84;;;7.32;62.58
53522;BME280;39398;48.382;9.802;2024-02-21T19:55:57;93510.97;;;7.36;62.26
53522;BME280;39398;48.382;9.802;2024-02-21T20:00:59;93504.78;;;7.37;62.07
53522;BME280;39398;48.382;9.802;2024-02-21T20:06:02;93493.44;;;7.38;62.37
53522;BME280;39398;48.382;9.802;2024-02-21T20:11:04;93483.69;;;7.40;62.17
53522;BME280;39398;48.382;9.802;2024-02-21T20:16:06;93474.13;;;7.34;62.22
53522;BME280;39398;48.382;9.802;2024-02-21T20:21:09;93482.03;;;7.26;61.68
53522;BME280;39398;48.382;9.802;2024-02-21T20:26:10;93483.25;;;7.30;61.91
53522;BME280;39398;48.382;9.802;2024-02-21T20:31:12;93464.13;;;7.24;62.79
53522;BME280;39398;48.382;9.802;2024-02-21T20:36:15;93478.03;;;7.17;64.22
53522;BME280;39398;48.382;9.802;2024-02-21T20:41:17;93448.59;;;7.18;63.46
53522;BME280;39398;48.382;9.802;2024-02-21T20:46:18;93434.22;;;7.09;64.79
53522;BME280;39398;48.382;9.802;2024-02-21T20:51:21;93439.78;;;7.06;65.12
53522;BME280;39398;48.382;9.802;2024-02-21T20:56:23;93424.28;;;7.06;64.30
53522;BME280;39398;48.382;9.802;2024-02-21T21:01:25;93395.63;;;7.00;65.10
53522;BME280;39398;48.382;9.802;2024-02-21T21:06:28;93403.00;;;7.04;64.99
53522;BME280;39398;48.382;9.802;2024-02-21T21:11:29;93414.72;;;7.06;64.91
53522;BME280;39398;48.382;9.802;2024-02-21T21:16:46;93384.69;;;6.98;64.91
53522;BME280;39398;48.382;9.802;2024-02-21T21:21:49;93375.91;;;6.93;65.13
53522;BME280;39398;48.382;9.802;2024-02-21T21:26:51;93396.00;;;6.97;64.88
53522;BME280;39398;48.382;9.802;2024-02-21T21:31:52;93376.94;;;6.98;64.93
53522;BME280;39398;48.382;9.802;2024-02-21T21:36:55;93375.34;;;6.97;64.62
53522;BME280;39398;48.382;9.802;2024-02-21T21:41:57;93357.84;;;6.99;64.53
53522;BME280;39398;48.382;9.802;2024-02-21T21:46:58;93351.91;;;7.06;64.36
53522;BME280;39398;48.382;9.802;2024-02-21T21:52:01;93336.81;;;7.09;64.19
53522;BME280;39398;48.382;9.802;2024-02-21T21:57:04;93329.84;;;7.10;63.51
53522;BME280;39398;48.382;9.802;2024-02-21T22:02:05;93313.56;;;7.16;63.77
53522;BME280;39398;48.382;9.802;2024-02-21T22:07:08;93309.41;;;7.15;63.33
53522;BME280;39398;48.382;9.802;2024-02-21T22:12:10;93301.41;;;7.10;63.72
53522;BME280;39398;48.382;9.802;2024-02-21T22:17:12;93297.47;;;7.14;63.53
53522;BME280;39398;48.382;9.802;2024-02-21T22:22:17;93302.63;;;7.14;63.43
53522;BME280;39398;48.382;9.802;2024-02-21T22:27:19;93286.13;;;7.15;63.57
53522;BME280;39398;48.382;9.802;2024-02-21T22:32:20;93271.63;;;7.14;63.03
53522;BME280;39398;48.382;9.802;2024-02-21T22:37:23;93257.69;;;7.15;62.42
53522;BME280;39398;48.382;9.802;2024-02-21T22:42:25;93257.69;;;7.15;62.66
53522;BME280;39398;48.382;9.802;2024-02-21T22:47:26;93243.78;;;7.16;62.80
53522;BME280;39398;48.382;9.802;2024-02-21T22:52:29;93235.03;;;7.17;62.90
53522;BME280;39398;48.382;9.802;2024-02-21T22:57:31;93227.47;;;7.15;62.75
53522;BME280;39398;48.382;9.802;2024-02-21T23:02:33;93225.88;;;7.14;62.54
53522;BME280;39398;48.382;9.802;2024-02-21T23:07:36;93204.78;;;7.11;62.85
53522;BME280;39398;48.382;9.802;2024-02-21T23:12:37;93196.44;;;7.09;63.58
53522;BME280;39398;48.382;9.802;2024-02-21T23:17:39;93191.66;;;7.06;63.48
53522;BME280;39398;48.382;9.802;2024-02-21T23:22:43;93183.91;;;7.06;63.05
53522;BME280;39398;48.382;9.802;2024-02-21T23:27:44;93170.97;;;7.06;63.05
53522;BME280;39398;48.382;9.802;2024-02-21T23:32:46;93164.22;;;7.05;63.51
53522;BME280;39398;48.382;9.802;2024-02-21T23:37:49;93167.81;;;7.04;63.24
53522;BME280;39398;48.382;9.802;2024-02-21T23:42:50;93158.69;;;7.01;63.62
53522;BME280;39398;48.382;9.802;2024-02-21T23:47:52;93161.06;;;7.03;62.93
53522;BME280;39398;48.382;9.802;2024-02-21T23:52:55;93155.09;;;7.02;63.26
53522;BME280;39398;48.382;9.802;2024-02-21T23:57:56;93144.34;;;6.98;62.80
